createdAt,value
2018-01-27T00:01:15.420Z,5.57
2018-01-27T00:03:42.357Z,6.93
2018-01-27T00:06:10.064Z,6.63
2018-01-27T00:08:37.021Z,5.80
2018-01-27T00:11:03.981Z,10.07
2018-01-27T00:13:30.917Z,6.20
2018-01-27T00:15:57.877Z,8.37
2018-01-27T00:18:24.809Z,5.93
2018-01-27T00:20:51.755Z,7.10
2018-01-27T00:23:18.706Z,5.80
2018-01-27T00:25:45.650Z,7.13
2018-01-27T00:28:12.594Z,5.07
2018-01-27T00:30:39.532Z,7.33
2018-01-27T00:33:06.507Z,6.90
2018-01-27T00:35:33.458Z,6.93
2018-01-27T00:38:00.405Z,7.63
2018-01-27T00:40:27.369Z,6.73
2018-01-27T00:42:54.291Z,9.53
2018-01-27T00:45:21.276Z,5.77
2018-01-27T00:47:48.190Z,7.13
2018-01-27T00:50:15.132Z,5.83
2018-01-27T00:52:42.083Z,5.37
2018-01-27T00:55:11.894Z,6.50
2018-01-27T00:57:39.605Z,6.73
2018-01-27T01:00:06.558Z,7.53
2018-01-27T01:02:33.510Z,7.07
2018-01-27T01:05:00.451Z,6.07
2018-01-27T01:07:27.381Z,5.63
2018-01-27T01:09:54.322Z,7.83
2018-01-27T01:12:22.027Z,4.83
2018-01-27T01:14:48.969Z,5.70
2018-01-27T01:17:15.913Z,5.97
2018-01-27T01:19:42.852Z,7.80
2018-01-27T01:22:09.808Z,6.37
2018-01-27T01:24:36.743Z,6.20
2018-01-27T01:27:03.712Z,6.33
2018-01-27T01:29:30.645Z,6.67
2018-01-27T01:31:57.597Z,6.90
2018-01-27T01:34:24.542Z,5.53
2018-01-27T01:36:52.240Z,6.20
2018-01-27T01:39:19.187Z,6.60
2018-01-27T01:41:46.126Z,5.73
2018-01-27T01:44:13.061Z,6.47
2018-01-27T01:46:40.793Z,6.10
2018-01-27T01:49:07.731Z,6.43
2018-01-27T01:51:34.690Z,5.57
2018-01-27T01:54:01.650Z,5.53
2018-01-27T01:56:28.592Z,7.03
2018-01-27T01:58:55.544Z,7.10
2018-01-27T02:01:22.487Z,7.57
2018-01-27T02:03:49.431Z,7.57
2018-01-27T02:06:16.387Z,6.77
2018-01-27T02:08:43.337Z,6.67
2018-01-27T02:11:10.288Z,6.60
2018-01-27T02:13:37.222Z,5.37
2018-01-27T02:16:04.172Z,6.03
2018-01-27T02:18:31.112Z,7.20
2018-01-27T02:20:58.058Z,5.23
2018-01-27T02:23:25.009Z,6.67
2018-01-27T02:25:51.948Z,5.53
2018-01-27T02:28:18.876Z,6.50
2018-01-27T02:30:46.585Z,5.50
2018-01-27T02:33:13.549Z,6.20
2018-01-27T02:35:40.511Z,7.13
2018-01-27T02:38:07.445Z,5.50
2018-01-27T02:40:34.392Z,6.10
2018-01-27T02:43:01.341Z,6.47
2018-01-27T02:45:28.281Z,5.63
2018-01-27T02:47:55.213Z,4.67
2018-01-27T02:50:22.158Z,5.57
2018-01-27T02:52:49.865Z,5.23
2018-01-27T02:55:16.804Z,6.17
2018-01-27T02:57:43.733Z,6.10
2018-01-27T03:00:10.733Z,6.07
2018-01-27T03:02:37.664Z,7.43
2018-01-27T03:05:04.602Z,5.30
2018-01-27T03:07:31.548Z,6.33
2018-01-27T03:09:58.493Z,5.03
2018-01-27T03:12:25.428Z,6.47
2018-01-27T03:14:52.366Z,7.53
2018-01-27T03:17:20.060Z,5.00
2018-01-27T03:19:46.996Z,5.90
2018-01-27T03:22:13.930Z,5.83
2018-01-27T03:24:40.873Z,5.50
2018-01-27T03:27:07.811Z,4.50
2018-01-27T03:29:34.748Z,5.23
2018-01-27T03:32:01.688Z,5.03
2018-01-27T03:34:28.643Z,4.53
2018-01-27T03:36:55.606Z,6.30
2018-01-27T03:39:22.556Z,5.57
2018-01-27T03:41:49.504Z,5.67
2018-01-27T03:44:16.428Z,5.07
2018-01-27T03:46:43.373Z,7.57
2018-01-27T03:49:10.317Z,5.47
2018-01-27T03:51:37.255Z,4.60
2018-01-27T03:54:04.201Z,5.07
2018-01-27T03:56:31.897Z,6.23
2018-01-27T03:58:58.841Z,4.67
2018-01-27T04:01:25.978Z,5.60
2018-01-27T04:03:53.699Z,5.60
2018-01-27T04:06:20.638Z,5.50
2018-01-27T04:08:47.581Z,5.20
2018-01-27T04:11:14.535Z,6.90
2018-01-27T04:13:41.485Z,4.97
2018-01-27T04:16:08.426Z,5.30
2018-01-27T04:18:35.358Z,4.93
2018-01-27T04:23:39.469Z,4.57
2018-01-27T04:26:07.172Z,4.23
2018-01-27T04:28:34.114Z,4.97
2018-01-27T04:31:01.061Z,5.50
2018-01-27T04:33:28.016Z,3.83
2018-01-27T04:35:54.948Z,4.47
2018-01-27T04:38:21.899Z,4.53
2018-01-27T04:40:48.837Z,6.17
2018-01-27T04:43:16.541Z,4.77
2018-01-27T04:45:43.487Z,5.40
2018-01-27T04:48:10.448Z,5.23
2018-01-27T04:50:37.389Z,5.03
2018-01-27T04:53:04.330Z,4.97
2018-01-27T04:55:31.276Z,5.00
2018-01-27T04:57:58.241Z,4.23
2018-01-27T05:00:25.173Z,4.97
2018-01-27T05:02:52.109Z,4.67
2018-01-27T05:05:19.815Z,5.47
2018-01-27T05:07:47.518Z,4.37
2018-01-27T05:10:14.460Z,4.40
2018-01-27T05:12:41.402Z,4.63
2018-01-27T05:15:08.335Z,4.70
2018-01-27T05:17:35.276Z,4.57
2018-01-27T05:20:02.218Z,4.93
2018-01-27T05:22:29.148Z,4.63
2018-01-27T05:24:56.857Z,3.83
2018-01-27T05:27:23.827Z,4.80
2018-01-27T05:29:50.783Z,5.47
2018-01-27T05:32:17.720Z,4.57
2018-01-27T05:34:44.645Z,4.17
2018-01-27T05:37:16.068Z,4.10
2018-01-27T05:39:43.765Z,4.67
2018-01-27T05:42:10.704Z,4.70
2018-01-27T05:44:37.648Z,4.10
2018-01-27T05:47:05.376Z,4.40
2018-01-27T05:49:32.292Z,5.43
2018-01-27T05:52:00.007Z,4.27
2018-01-27T05:54:26.933Z,4.23
2018-01-27T05:56:53.873Z,5.23
2018-01-27T05:59:20.830Z,4.60
2018-01-27T06:01:47.760Z,6.30
2018-01-27T06:04:14.701Z,4.80
2018-01-27T06:06:41.636Z,5.27
2018-01-27T06:09:09.346Z,4.07
2018-01-27T06:11:37.052Z,5.13
2018-01-27T06:14:03.990Z,4.70
2018-01-27T06:16:30.928Z,4.80
2018-01-27T06:18:57.879Z,4.83
2018-01-27T06:21:24.819Z,4.20
2018-01-27T06:23:51.763Z,5.93
2018-01-27T06:26:18.704Z,5.47
2018-01-27T06:28:45.648Z,4.73
2018-01-27T06:31:12.584Z,5.47
2018-01-27T06:33:40.368Z,4.47
2018-01-27T06:36:07.325Z,5.63
2018-01-27T06:38:34.252Z,6.17
2018-01-27T06:41:01.208Z,4.70
2018-01-27T06:43:28.162Z,4.77
2018-01-27T06:45:55.104Z,5.47
2018-01-27T06:48:22.041Z,4.40
2018-01-27T06:50:49.777Z,5.60
2018-01-27T06:53:16.727Z,4.33
2018-01-27T06:55:43.674Z,5.13
2018-01-27T06:58:10.636Z,4.27
2018-01-27T07:00:37.573Z,5.03
2018-01-27T07:03:04.519Z,5.17
2018-01-27T07:05:31.456Z,4.73
2018-01-27T07:07:58.395Z,5.97
2018-01-27T07:10:25.335Z,4.87
2018-01-27T07:12:52.273Z,4.40
2018-01-27T07:15:19.219Z,6.23
2018-01-27T07:17:46.170Z,5.47
2018-01-27T07:20:13.881Z,6.43
2018-01-27T07:22:40.814Z,5.00
2018-01-27T07:25:07.767Z,5.27
2018-01-27T07:27:34.717Z,5.53
2018-01-27T07:30:01.663Z,4.63
2018-01-27T07:32:28.604Z,6.27
2018-01-27T07:34:55.553Z,5.57
2018-01-27T07:37:22.495Z,7.27
2018-01-27T07:39:49.449Z,6.60
2018-01-27T07:42:16.393Z,5.37
2018-01-27T07:44:43.331Z,5.63
2018-01-27T07:47:11.044Z,5.40
2018-01-27T07:49:37.985Z,5.50
2018-01-27T07:52:04.983Z,4.83
2018-01-27T07:54:31.922Z,4.77
2018-01-27T07:56:58.867Z,5.13
2018-01-27T07:59:25.828Z,5.10
2018-01-27T08:01:52.815Z,5.47
2018-01-27T08:04:19.723Z,5.67
2018-01-27T08:06:46.675Z,4.87
2018-01-27T08:09:13.624Z,5.90
2018-01-27T08:11:40.552Z,6.77
2018-01-27T08:14:07.505Z,10.90
2018-01-27T08:16:34.447Z,11.90
2018-01-27T08:19:01.401Z,18.30
2018-01-27T08:21:28.352Z,18.40
2018-01-27T08:23:55.305Z,20.87
2018-01-27T08:26:22.245Z,18.43
2018-01-27T08:28:49.893Z,14.27
2018-01-27T08:31:16.852Z,14.80
2018-01-27T08:33:43.811Z,13.57
2018-01-27T08:36:10.746Z,13.33
2018-01-27T08:38:37.684Z,12.03
2018-01-27T08:41:05.406Z,12.20
2018-01-27T08:43:32.341Z,10.13
2018-01-27T08:45:59.289Z,9.73
2018-01-27T08:48:26.249Z,9.20
2018-01-27T08:50:53.175Z,8.40
2018-01-27T08:53:20.109Z,11.77
2018-01-27T08:55:47.054Z,7.87
2018-01-27T08:58:14.767Z,7.33
2018-01-27T09:00:41.717Z,8.30
2018-01-27T09:03:08.664Z,9.13
2018-01-27T09:05:35.607Z,7.33
2018-01-27T09:08:02.550Z,7.07
2018-01-27T09:10:29.495Z,8.07
2018-01-27T09:12:56.429Z,8.23
2018-01-27T09:15:23.387Z,8.03
2018-01-27T09:17:51.085Z,9.00
2018-01-27T09:20:18.019Z,10.23
2018-01-27T09:22:44.972Z,9.40
2018-01-27T09:25:11.910Z,7.27
2018-01-27T09:27:38.860Z,9.40
2018-01-27T09:30:05.812Z,9.83
2018-01-27T09:32:32.748Z,8.67
2018-01-27T09:35:00.466Z,9.70
2018-01-27T09:37:27.421Z,9.07
2018-01-27T09:39:54.358Z,10.33
2018-01-27T09:42:21.305Z,11.67
2018-01-27T09:44:48.271Z,12.03
2018-01-27T09:47:15.220Z,11.40
2018-01-27T09:49:42.184Z,12.33
2018-01-27T09:52:09.138Z,13.67
2018-01-27T09:54:36.077Z,11.60
2018-01-27T09:57:03.042Z,13.40
2018-01-27T09:59:29.985Z,16.70
2018-01-27T10:01:56.923Z,16.97
2018-01-27T10:04:23.894Z,17.47
2018-01-27T10:06:50.824Z,18.87
2018-01-27T10:09:17.786Z,16.43
2018-01-27T10:11:44.738Z,16.90
2018-01-27T10:14:11.685Z,14.23
2018-01-27T10:16:38.640Z,14.73
2018-01-27T10:19:05.577Z,13.97
2018-01-27T10:21:32.518Z,14.33
2018-01-27T10:23:59.457Z,14.83
2018-01-27T10:26:26.389Z,13.07
2018-01-27T10:34:02.561Z,13.27
2018-01-27T10:36:30.301Z,13.43
2018-01-27T10:38:57.255Z,13.67
2018-01-27T10:41:24.196Z,8.93
2018-01-27T10:43:51.131Z,11.83
2018-01-27T10:46:18.074Z,10.70
2018-01-27T10:48:45.036Z,10.43
2018-01-27T10:51:11.960Z,11.40
2018-01-27T10:53:38.909Z,12.00
2018-01-27T10:56:06.633Z,12.80
2018-01-27T10:58:33.580Z,9.70
2018-01-27T11:01:00.516Z,9.53
2018-01-27T11:03:27.468Z,11.40
2018-01-27T11:05:54.410Z,11.63
2018-01-27T11:08:21.365Z,10.50
2018-01-27T11:10:48.305Z,9.80
2018-01-27T11:13:15.254Z,11.93
2018-01-27T11:15:42.198Z,9.27
2018-01-27T11:18:09.136Z,12.33
2018-01-27T11:20:36.431Z,8.30
2018-01-27T11:23:03.371Z,10.20
2018-01-27T11:25:30.396Z,10.70
2018-01-27T11:27:57.329Z,8.87
2018-01-27T11:30:25.038Z,8.63
2018-01-27T11:32:51.980Z,9.37
2018-01-27T11:35:18.920Z,10.90
2018-01-27T11:37:45.864Z,9.17
2018-01-27T11:40:12.819Z,8.20
2018-01-27T11:42:39.767Z,8.67
2018-01-27T11:45:06.713Z,7.27
2018-01-27T11:47:33.669Z,19.00
2018-01-27T11:50:00.608Z,13.27
2018-01-27T11:52:27.562Z,13.93
2018-01-27T11:57:29.322Z,11.67
2018-01-27T11:59:57.029Z,11.03
2018-01-27T12:02:23.968Z,10.63
2018-01-27T12:04:50.954Z,9.67
2018-01-27T12:07:17.895Z,10.57
2018-01-27T12:09:44.841Z,10.33
2018-01-27T12:12:11.776Z,9.97
2018-01-27T12:14:38.730Z,10.03
2018-01-27T12:17:11.490Z,11.47
2018-01-27T12:19:38.448Z,9.47
2018-01-27T12:22:10.490Z,9.23
2018-01-27T12:24:38.209Z,9.73
2018-01-27T12:32:11.015Z,8.77
2018-01-27T12:42:17.932Z,10.93
2018-01-27T12:44:45.637Z,9.27
2018-01-27T12:47:12.565Z,9.17
2018-01-27T12:49:39.509Z,7.57
2018-01-27T12:52:06.447Z,8.93
2018-01-27T12:54:34.176Z,8.23
2018-01-27T12:57:01.121Z,9.00
2018-01-27T12:59:28.073Z,10.80
2018-01-27T13:01:55.028Z,9.67
2018-01-27T13:04:21.992Z,10.97
2018-01-27T13:06:48.932Z,8.73
2018-01-27T13:09:15.873Z,8.23
2018-01-27T13:11:42.834Z,12.50
2018-01-27T13:14:09.797Z,8.53
2018-01-27T13:16:36.748Z,12.37
2018-01-27T13:19:03.680Z,7.90
2018-01-27T13:21:30.624Z,9.00
2018-01-27T13:23:57.564Z,8.70
2018-01-27T13:26:24.512Z,9.13
2018-01-27T13:28:51.452Z,7.90
2018-01-27T13:36:25.272Z,9.47
2018-01-27T13:38:52.975Z,8.17
2018-01-27T13:41:19.900Z,7.63
2018-01-27T13:43:46.839Z,9.80
2018-01-27T13:46:13.781Z,8.47
2018-01-27T13:48:41.482Z,7.57
2018-01-27T13:51:08.443Z,8.20
2018-01-27T13:53:35.388Z,8.97
2018-01-27T13:56:02.341Z,7.90
2018-01-27T13:58:29.281Z,8.57
2018-01-27T14:00:56.229Z,7.77
2018-01-27T14:03:23.170Z,7.63
2018-01-27T14:05:50.159Z,7.80
2018-01-27T14:08:17.832Z,6.77
2018-01-27T14:10:44.805Z,7.90
2018-01-27T14:13:11.729Z,8.10
2018-01-27T14:15:38.653Z,6.97
2018-01-27T14:18:05.597Z,7.60
2018-01-27T14:20:32.535Z,7.77
2018-01-27T14:22:59.483Z,6.07
2018-01-27T14:25:26.430Z,7.27
2018-01-27T14:27:54.150Z,6.20
2018-01-27T14:30:21.089Z,6.63
2018-01-27T14:32:48.045Z,7.87
2018-01-27T14:35:14.985Z,8.40
2018-01-27T14:37:41.921Z,7.57
2018-01-27T14:40:08.867Z,6.60
2018-01-27T14:42:35.831Z,6.33
2018-01-27T14:45:02.770Z,7.27
2018-01-27T14:47:30.106Z,6.23
2018-01-27T14:49:57.808Z,6.20
2018-01-27T14:52:24.753Z,6.90
2018-01-27T14:54:51.703Z,6.20
2018-01-27T14:57:18.655Z,6.73
2018-01-27T14:59:45.626Z,7.67
2018-01-27T15:02:12.602Z,6.27
2018-01-27T15:04:39.540Z,6.70
2018-01-27T15:07:06.483Z,6.83
2018-01-27T15:09:33.413Z,5.90
2018-01-27T15:12:00.356Z,6.93
2018-01-27T15:14:27.297Z,6.57
2018-01-27T15:16:54.245Z,7.07
2018-01-27T15:19:21.205Z,6.93
2018-01-27T15:21:48.142Z,6.40
2018-01-27T15:24:15.081Z,5.97
2018-01-27T15:26:42.807Z,6.57
2018-01-27T15:29:09.742Z,7.23
2018-01-27T15:31:36.884Z,5.93
2018-01-27T15:34:03.817Z,5.80
2018-01-27T15:36:30.765Z,6.67
2018-01-27T15:38:58.515Z,6.23
2018-01-27T15:41:26.220Z,5.70
2018-01-27T15:43:53.156Z,6.00
2018-01-27T15:46:20.099Z,5.93
2018-01-27T15:48:47.796Z,7.43
2018-01-27T15:51:14.768Z,7.17
2018-01-27T15:53:41.732Z,6.30
2018-01-27T15:56:08.680Z,8.37
2018-01-27T15:58:35.625Z,6.20
2018-01-27T16:01:02.628Z,6.33
2018-01-27T16:03:29.533Z,5.93
2018-01-27T16:05:56.474Z,6.40
2018-01-27T16:08:23.410Z,6.03
2018-01-27T16:10:50.344Z,5.63
2018-01-27T16:13:17.295Z,5.90
2018-01-27T16:15:44.240Z,6.80
2018-01-27T16:18:11.184Z,6.30
2018-01-27T16:20:38.124Z,5.60
2018-01-27T16:23:05.065Z,6.43
2018-01-27T16:25:32.777Z,6.27
2018-01-27T16:27:59.721Z,6.07
2018-01-27T16:30:27.425Z,6.47
2018-01-27T16:32:54.371Z,5.83
2018-01-27T16:35:21.313Z,5.93
2018-01-27T16:37:48.261Z,6.20
2018-01-27T16:40:15.196Z,5.80
2018-01-27T16:42:42.133Z,4.93
2018-01-27T16:45:09.072Z,6.20
2018-01-27T16:47:36.036Z,5.33
2018-01-27T16:50:02.982Z,6.33
2018-01-27T16:52:31.232Z,5.47
2018-01-27T16:54:58.928Z,5.87
2018-01-27T16:57:25.868Z,5.43
2018-01-27T16:59:52.820Z,5.57
2018-01-27T17:02:19.761Z,5.20
2018-01-27T17:04:47.461Z,6.63
2018-01-27T17:07:14.397Z,5.23
2018-01-27T17:09:41.362Z,5.47
2018-01-27T17:12:08.280Z,5.07
2018-01-27T17:14:35.231Z,7.33
2018-01-27T17:17:02.934Z,5.63
2018-01-27T17:19:29.860Z,6.37
2018-01-27T17:21:56.812Z,8.10
2018-01-27T17:24:23.768Z,10.33
2018-01-27T17:26:50.709Z,7.93
2018-01-27T17:29:17.657Z,9.10
2018-01-27T17:34:17.814Z,9.00
2018-01-27T17:36:44.744Z,7.13
2018-01-27T17:39:11.716Z,8.30
2018-01-27T17:41:39.387Z,5.90
2018-01-27T17:44:12.144Z,7.03
2018-01-27T17:46:39.871Z,7.23
2018-01-27T17:49:06.821Z,11.73
2018-01-27T17:56:42.151Z,7.73
2018-01-27T17:59:14.935Z,8.77
2018-01-27T18:01:42.650Z,10.80
2018-01-27T18:04:10.383Z,7.23
2018-01-27T18:16:48.996Z,10.27
2018-01-27T18:19:15.908Z,7.57
2018-01-27T18:21:43.616Z,8.30
2018-01-27T18:24:10.574Z,7.87
2018-01-27T18:26:37.542Z,8.17
2018-01-27T18:29:04.484Z,14.13
2018-01-27T18:31:31.433Z,6.70
2018-01-27T18:33:58.404Z,7.63
2018-01-27T18:38:57.981Z,9.93
2018-01-27T18:43:58.809Z,5.57
2018-01-27T18:46:26.523Z,10.50
2018-01-27T18:48:53.461Z,5.53
2018-01-27T18:51:20.408Z,4.87
2018-01-27T18:53:47.337Z,9.37
2018-01-27T18:56:15.120Z,5.90
2018-01-27T18:58:42.048Z,7.63
2018-01-27T19:01:09.787Z,5.93
2018-01-27T19:03:36.730Z,7.37
2018-01-27T19:06:03.656Z,8.53
2018-01-27T19:08:30.608Z,6.00
2018-01-27T19:10:57.552Z,7.03
2018-01-27T19:13:24.501Z,8.23
2018-01-27T19:15:51.442Z,6.73
2018-01-27T19:18:18.380Z,7.03
2018-01-27T19:20:45.332Z,6.57
2018-01-27T19:23:13.039Z,5.73
2018-01-27T19:25:39.972Z,4.57
2018-01-27T19:28:06.916Z,8.07
2018-01-27T19:30:33.873Z,5.00
2018-01-27T19:33:00.811Z,4.50
2018-01-27T19:35:27.756Z,5.80
2018-01-27T19:37:54.700Z,6.67
2018-01-27T19:40:22.428Z,8.23
2018-01-27T19:42:49.389Z,7.47
2018-01-27T19:45:16.327Z,5.17
2018-01-27T19:47:43.256Z,4.47
2018-01-27T19:50:10.188Z,6.40
2018-01-27T19:55:12.041Z,7.20
2018-01-27T19:57:39.756Z,6.77
2018-01-27T20:00:06.761Z,4.23
2018-01-27T20:02:34.461Z,3.57
2018-01-27T20:05:01.402Z,4.53
2018-01-27T20:07:28.341Z,5.10
2018-01-27T20:09:56.060Z,3.10
2018-01-27T20:12:22.996Z,4.53
2018-01-27T20:14:49.959Z,3.53
2018-01-27T20:17:16.901Z,3.53
2018-01-27T20:19:44.613Z,4.30
2018-01-27T20:22:12.348Z,5.50
2018-01-27T20:24:39.293Z,6.93
2018-01-27T20:27:06.226Z,3.90
2018-01-27T20:29:33.184Z,2.73
2018-01-27T20:32:00.902Z,5.93
2018-01-27T20:34:28.596Z,3.40
2018-01-27T20:36:55.532Z,6.87
2018-01-27T20:39:23.236Z,4.37
2018-01-27T20:41:50.189Z,3.67
2018-01-27T20:44:17.129Z,5.50
2018-01-27T20:46:44.064Z,4.63
2018-01-27T20:49:10.999Z,4.37
2018-01-27T20:51:37.940Z,3.20
2018-01-27T20:54:05.641Z,2.90
2018-01-27T20:56:32.576Z,4.20
2018-01-27T20:58:59.509Z,3.10
2018-01-27T21:01:27.210Z,6.10
2018-01-27T21:03:54.165Z,3.17
2018-01-27T21:06:21.119Z,4.50
2018-01-27T21:08:48.073Z,3.20
2018-01-27T21:11:15.021Z,4.60
2018-01-27T21:13:41.964Z,3.30
2018-01-27T21:16:08.896Z,2.47
2018-01-27T21:18:35.848Z,3.77
2018-01-27T21:21:02.788Z,3.60
2018-01-27T21:23:29.732Z,3.60
2018-01-27T21:25:57.436Z,3.27
2018-01-27T21:28:24.376Z,2.83
2018-01-27T21:30:51.318Z,3.00
2018-01-27T21:33:18.245Z,4.07
2018-01-27T21:35:45.944Z,2.97
2018-01-27T21:38:12.886Z,3.57
2018-01-27T21:40:39.832Z,3.13
2018-01-27T21:43:06.769Z,3.23
2018-01-27T21:45:34.470Z,2.17
2018-01-27T21:48:01.400Z,2.67
2018-01-27T21:50:28.344Z,2.83
2018-01-27T21:52:55.290Z,3.50
2018-01-27T21:55:22.989Z,2.27
2018-01-27T21:57:49.950Z,2.27
2018-01-27T22:00:16.888Z,3.10
2018-01-27T22:02:43.829Z,2.37
2018-01-27T22:05:10.767Z,2.60
2018-01-27T22:07:37.705Z,2.43
2018-01-27T22:10:05.411Z,2.57
2018-01-27T22:12:32.352Z,2.27
2018-01-27T22:14:59.292Z,2.87
2018-01-27T22:17:26.245Z,2.80
2018-01-27T22:19:53.256Z,3.87
2018-01-27T22:22:20.188Z,3.17
2018-01-27T22:24:47.140Z,2.30
2018-01-27T22:34:51.956Z,1.90
2018-01-27T22:37:18.899Z,4.07
2018-01-27T22:39:45.834Z,2.10
2018-01-27T22:42:12.782Z,2.97
2018-01-27T22:44:39.728Z,2.23
2018-01-27T22:47:06.675Z,2.30
2018-01-27T22:49:34.391Z,1.83
2018-01-27T22:52:02.110Z,1.93
2018-01-27T22:54:29.052Z,1.83
2018-01-27T22:56:55.996Z,1.83
2018-01-27T22:59:24.045Z,3.10
2018-01-27T23:01:50.994Z,1.90
2018-01-27T23:04:18.688Z,2.60
2018-01-27T23:06:45.624Z,3.67
2018-01-27T23:09:12.572Z,2.00
2018-01-27T23:11:39.520Z,1.70
2018-01-27T23:14:06.460Z,2.60
2018-01-27T23:16:33.412Z,3.57
2018-01-27T23:19:00.340Z,2.67
2018-01-27T23:21:27.300Z,2.07
2018-01-27T23:23:55.021Z,1.77
2018-01-27T23:26:21.964Z,2.20
2018-01-27T23:28:48.919Z,2.23
2018-01-27T23:31:15.860Z,2.03
2018-01-27T23:33:42.800Z,1.67
2018-01-27T23:36:09.736Z,2.07
2018-01-27T23:38:36.687Z,1.70
2018-01-27T23:41:03.637Z,1.70
2018-01-27T23:43:30.589Z,2.60
2018-01-27T23:45:58.304Z,1.77
2018-01-27T23:48:25.248Z,2.10
2018-01-27T23:50:52.191Z,2.37
2018-01-27T23:53:19.146Z,2.20
2018-01-27T23:55:46.099Z,3.37
2018-01-27T23:58:13.048Z,2.40
